createdAt,value
2022-10-23T00:01:20.398Z,19.50
2022-10-23T00:03:48.099Z,15.70
2022-10-23T00:06:15.196Z,19.20
2022-10-23T00:08:42.306Z,20.88
2022-10-23T00:11:14.441Z,21.10
2022-10-23T00:13:41.893Z,23.92
2022-10-23T00:16:09.479Z,17.42
2022-10-23T00:18:37.787Z,20.20
2022-10-23T00:21:05.503Z,22.73
2022-10-23T00:23:32.440Z,17.85
2022-10-23T00:26:00.207Z,22.40
2022-10-23T00:28:27.130Z,21.90
2022-10-23T00:30:54.402Z,21.10
2022-10-23T00:33:21.323Z,22.20
2022-10-23T00:35:48.430Z,19.67
2022-10-23T00:38:15.194Z,18.38
2022-10-23T00:40:43.953Z,16.40
2022-10-23T00:43:19.944Z,21.97
2022-10-23T00:45:47.677Z,22.13
2022-10-23T00:48:16.050Z,21.80
2022-10-23T00:50:43.492Z,20.90
2022-10-23T00:53:12.919Z,21.08
2022-10-23T00:55:46.875Z,21.90
2022-10-23T00:58:17.430Z,24.10
2022-10-23T01:00:48.010Z,25.38
2022-10-23T01:03:17.177Z,23.02
2022-10-23T01:05:56.065Z,21.48
2022-10-23T01:08:31.945Z,23.73
2022-10-23T01:11:10.092Z,25.58
2022-10-23T01:17:06.012Z,20.80
2022-10-23T01:19:51.845Z,22.65
2022-10-23T01:25:12.662Z,24.60
2022-10-23T01:27:44.447Z,21.27
2022-10-23T01:30:16.185Z,23.38
2022-10-23T01:32:48.254Z,23.63
2022-10-23T01:35:30.448Z,20.50
2022-10-23T01:38:07.642Z,18.58
2022-10-23T01:40:43.023Z,20.73
2022-10-23T01:43:16.667Z,24.40
2022-10-23T01:45:50.889Z,21.33
2022-10-23T01:48:27.362Z,23.00
2022-10-23T01:50:57.875Z,22.10
2022-10-23T01:53:27.538Z,20.15
2022-10-23T01:55:55.845Z,20.15
2022-10-23T01:58:26.419Z,23.23
2022-10-23T02:00:58.892Z,20.37
2022-10-23T02:03:29.656Z,25.00
2022-10-23T02:05:56.693Z,22.33
2022-10-23T02:08:25.464Z,20.02
2022-10-23T02:11:09.714Z,25.58
2022-10-23T02:14:11.996Z,20.37
2022-10-23T02:16:58.434Z,20.13
2022-10-23T02:19:48.199Z,19.75
2022-10-23T02:22:29.655Z,19.55
2022-10-23T02:25:05.245Z,21.55
2022-10-23T02:27:40.325Z,17.77
2022-10-23T02:30:14.659Z,18.08
2022-10-23T02:32:50.875Z,19.02
2022-10-23T02:35:20.145Z,19.40
2022-10-23T02:37:57.742Z,21.02
2022-10-23T02:40:40.725Z,22.77
2022-10-23T02:43:32.247Z,21.33
2022-10-23T02:46:30.107Z,21.02
2022-10-23T02:49:09.651Z,22.38
2022-10-23T02:51:41.922Z,21.85
2022-10-23T02:54:25.515Z,21.10
2022-10-23T02:57:05.126Z,20.13
2022-10-23T02:59:45.433Z,16.25
2022-10-23T03:02:23.245Z,18.90
2022-10-23T03:04:52.621Z,25.17
2022-10-23T03:07:20.530Z,20.30
2022-10-23T03:09:47.611Z,18.42
2022-10-23T03:12:14.572Z,22.23
2022-10-23T03:14:41.368Z,22.42
2022-10-23T03:17:08.209Z,20.58
2022-10-23T03:19:34.990Z,18.93
2022-10-23T03:22:03.963Z,20.08
2022-10-23T03:24:30.776Z,18.15
2022-10-23T03:26:57.594Z,26.90
2022-10-23T03:29:30.803Z,18.77
2022-10-23T03:31:57.664Z,21.37
2022-10-23T03:34:24.503Z,18.10
2022-10-23T03:36:53.275Z,17.10
2022-10-23T03:39:20.903Z,18.35
2022-10-23T03:41:48.171Z,17.85
2022-10-23T03:44:16.553Z,18.90
2022-10-23T03:46:45.133Z,20.50
2022-10-23T03:49:12.003Z,19.45
2022-10-23T03:51:44.013Z,17.27
2022-10-23T03:54:11.185Z,16.27
2022-10-23T03:56:38.122Z,18.80
2022-10-23T03:59:07.299Z,16.13
2022-10-23T04:01:34.145Z,17.08
2022-10-23T04:04:01.274Z,18.77
2022-10-23T04:06:28.577Z,19.55
2022-10-23T04:08:57.574Z,15.70
2022-10-23T04:11:24.451Z,19.35
2022-10-23T04:13:51.188Z,18.40
2022-10-23T04:16:18.056Z,21.48
2022-10-23T04:18:45.286Z,18.83
2022-10-23T04:21:12.395Z,25.20
2022-10-23T04:23:39.516Z,19.85
2022-10-23T04:26:12.203Z,21.27
2022-10-23T04:28:39.116Z,17.35
2022-10-23T04:31:06.052Z,20.33
2022-10-23T04:33:33.717Z,19.17
2022-10-23T04:36:00.562Z,19.40
2022-10-23T04:38:27.299Z,21.08
2022-10-23T04:40:54.082Z,17.92
2022-10-23T04:43:22.257Z,22.27
2022-10-23T04:45:50.179Z,20.07
2022-10-23T04:48:17.216Z,19.58
2022-10-23T04:51:05.876Z,18.75
2022-10-23T04:53:51.337Z,19.67
2022-10-23T04:56:36.797Z,19.10
2022-10-23T04:59:08.050Z,20.07
2022-10-23T05:01:36.431Z,18.20
2022-10-23T05:04:05.431Z,20.05
2022-10-23T05:06:37.581Z,17.33
2022-10-23T05:09:30.781Z,18.63
2022-10-23T05:12:11.989Z,16.43
2022-10-23T05:14:38.705Z,18.30
2022-10-23T05:17:13.845Z,15.10
2022-10-23T05:19:45.765Z,18.10
2022-10-23T05:22:13.336Z,17.23
2022-10-23T05:24:50.610Z,20.10
2022-10-23T05:27:20.949Z,17.58
2022-10-23T05:29:47.807Z,16.40
2022-10-23T05:32:17.862Z,15.95
2022-10-23T05:34:44.990Z,16.30
2022-10-23T05:37:14.384Z,18.40
2022-10-23T05:39:42.269Z,15.02
2022-10-23T05:42:14.270Z,15.35
2022-10-23T05:44:41.997Z,14.23
2022-10-23T05:47:08.949Z,19.80
2022-10-23T05:49:55.976Z,13.27
2022-10-23T05:52:49.044Z,14.50
2022-10-23T05:55:29.294Z,15.20
2022-10-23T05:58:04.582Z,13.98
2022-10-23T06:00:50.049Z,15.80
2022-10-23T06:03:36.807Z,18.43
2022-10-23T06:06:07.706Z,14.13
2022-10-23T06:08:46.558Z,14.30
2022-10-23T06:11:15.354Z,16.15
2022-10-23T06:13:48.992Z,17.85
2022-10-23T06:16:27.264Z,17.17
2022-10-23T06:18:55.275Z,15.73
2022-10-23T06:21:22.075Z,14.75
2022-10-23T06:23:50.524Z,16.98
2022-10-23T06:26:32.116Z,14.48
2022-10-23T06:29:06.012Z,18.50
2022-10-23T06:31:32.816Z,14.85
2022-10-23T06:34:00.093Z,13.20
2022-10-23T06:36:28.930Z,14.95
2022-10-23T06:39:05.142Z,15.63
2022-10-23T06:41:50.424Z,13.93
2022-10-23T06:44:37.220Z,18.73
2022-10-23T06:47:10.824Z,15.45
2022-10-23T06:49:56.462Z,14.38
2022-10-23T06:52:45.285Z,14.32
2022-10-23T06:55:10.518Z,15.40
2022-10-23T06:57:38.585Z,14.40
2022-10-23T07:00:06.494Z,17.17
2022-10-23T07:02:42.721Z,14.95
2022-10-23T07:05:12.788Z,12.88
2022-10-23T07:07:41.687Z,15.30
2022-10-23T07:10:10.140Z,13.88
2022-10-23T07:12:42.501Z,16.00
2022-10-23T07:15:28.628Z,14.35
2022-10-23T07:17:55.687Z,15.32
2022-10-23T07:20:24.253Z,16.57
2022-10-23T07:22:55.613Z,17.05
2022-10-23T07:25:34.447Z,14.57
2022-10-23T07:28:01.299Z,14.63
2022-10-23T07:30:30.387Z,13.15
2022-10-23T07:32:59.049Z,14.13
2022-10-23T07:35:41.228Z,16.77
2022-10-23T07:38:13.703Z,13.40
2022-10-23T07:40:44.982Z,15.05
2022-10-23T07:43:14.728Z,13.07
2022-10-23T07:45:41.491Z,14.43
2022-10-23T07:48:17.142Z,15.52
2022-10-23T07:51:08.598Z,14.40
2022-10-23T07:53:40.182Z,14.73
2022-10-23T07:56:20.817Z,14.63
2022-10-23T07:59:13.509Z,14.43
2022-10-23T08:01:42.948Z,17.08
2022-10-23T08:04:10.705Z,12.75
2022-10-23T08:06:44.921Z,15.38
2022-10-23T08:09:12.218Z,11.88
2022-10-23T08:11:41.108Z,13.63
2022-10-23T08:14:09.959Z,9.98
2022-10-23T08:16:39.467Z,15.63
2022-10-23T08:19:07.740Z,13.77
2022-10-23T08:21:38.051Z,11.70
2022-10-23T08:24:05.852Z,14.30
2022-10-23T08:26:32.857Z,13.05
2022-10-23T08:29:00.234Z,11.40
2022-10-23T08:31:28.178Z,10.00
2022-10-23T08:34:13.640Z,11.85
2022-10-23T08:36:42.102Z,14.40
2022-10-23T08:39:09.682Z,15.45
2022-10-23T08:41:43.737Z,12.02
2022-10-23T08:44:31.430Z,12.40
2022-10-23T08:47:26.407Z,13.15
2022-10-23T08:50:27.154Z,10.17
2022-10-23T08:53:04.646Z,13.07
2022-10-23T08:55:37.225Z,13.23
2022-10-23T08:58:15.369Z,10.07
2022-10-23T09:00:43.812Z,13.73
2022-10-23T09:03:12.855Z,11.00
2022-10-23T09:06:16.789Z,11.38
2022-10-23T09:09:31.370Z,13.75
2022-10-23T09:12:04.971Z,11.00
2022-10-23T09:14:53.647Z,12.10
2022-10-23T09:17:26.608Z,12.70
2022-10-23T09:20:16.282Z,13.55
2022-10-23T09:22:43.467Z,14.68
2022-10-23T09:25:21.983Z,11.63
2022-10-23T09:27:54.775Z,14.40
2022-10-23T09:30:32.646Z,13.13
2022-10-23T09:33:00.918Z,12.85
2022-10-23T09:35:30.279Z,16.48
2022-10-23T09:37:57.396Z,17.10
2022-10-23T09:40:38.873Z,12.60
2022-10-23T09:43:17.535Z,11.50
2022-10-23T09:45:44.488Z,15.50
2022-10-23T09:48:18.863Z,12.00
2022-10-23T09:50:56.039Z,15.90
2022-10-23T09:53:31.660Z,11.23
2022-10-23T09:56:02.728Z,11.90
2022-10-23T09:58:37.096Z,13.15
2022-10-23T10:01:04.824Z,9.75
2022-10-23T10:03:52.090Z,9.38
2022-10-23T10:06:25.118Z,10.57
2022-10-23T10:08:58.485Z,9.37
2022-10-23T10:11:44.012Z,10.35
2022-10-23T10:14:31.903Z,13.18
2022-10-23T10:17:05.506Z,8.98
2022-10-23T10:20:10.595Z,11.25
2022-10-23T10:22:51.059Z,10.07
2022-10-23T10:25:36.944Z,10.32
2022-10-23T10:28:37.664Z,10.38
2022-10-23T10:31:31.476Z,9.43
2022-10-23T10:34:27.426Z,7.95
2022-10-23T10:37:05.964Z,10.87
2022-10-23T10:39:55.046Z,7.97
2022-10-23T10:42:43.485Z,8.10
2022-10-23T10:45:19.269Z,9.45
2022-10-23T10:47:54.827Z,7.82
2022-10-23T10:50:42.494Z,8.30
2022-10-23T10:54:06.765Z,7.30
2022-10-23T10:56:37.606Z,11.23
2022-10-23T10:59:17.432Z,7.68
2022-10-23T11:02:12.511Z,8.18
2022-10-23T11:05:22.773Z,9.67
2022-10-23T11:07:58.863Z,10.48
2022-10-23T11:10:27.502Z,10.90
2022-10-23T11:12:54.489Z,7.90
2022-10-23T11:15:35.223Z,8.77
2022-10-23T11:18:06.407Z,11.07
2022-10-23T11:20:53.561Z,9.25
2022-10-23T11:23:21.151Z,10.48
2022-10-23T11:26:26.303Z,8.77
2022-10-23T11:29:16.433Z,11.50
2022-10-23T11:31:55.074Z,9.43
2022-10-23T11:34:27.856Z,7.30
2022-10-23T11:36:58.294Z,6.75
2022-10-23T11:39:27.426Z,9.98
2022-10-23T11:42:00.847Z,8.07
2022-10-23T11:44:41.599Z,7.97
2022-10-23T11:47:29.750Z,7.60
2022-10-23T11:50:08.938Z,8.48
2022-10-23T11:53:13.057Z,7.18
2022-10-23T11:55:55.995Z,7.50
2022-10-23T11:58:31.403Z,6.13
2022-10-23T12:01:19.467Z,8.90
2022-10-23T12:04:23.767Z,5.90
2022-10-23T12:07:04.790Z,10.02
2022-10-23T12:10:19.685Z,9.25
2022-10-23T12:12:57.166Z,12.53
2022-10-23T12:15:25.929Z,7.57
2022-10-23T12:17:54.761Z,6.78
2022-10-23T12:21:03.282Z,7.13
2022-10-23T12:23:38.976Z,8.15
2022-10-23T12:26:11.537Z,7.97
2022-10-23T12:28:53.476Z,7.68
2022-10-23T12:31:32.192Z,6.80
2022-10-23T12:34:22.194Z,7.57
2022-10-23T12:36:55.101Z,8.57
2022-10-23T12:39:36.262Z,9.20
2022-10-23T12:42:04.689Z,7.32
2022-10-23T12:44:31.659Z,9.32
2022-10-23T12:47:01.913Z,9.07
2022-10-23T12:49:33.476Z,8.05
2022-10-23T12:52:19.661Z,7.40
2022-10-23T12:54:46.858Z,10.07
2022-10-23T12:57:22.059Z,11.10
2022-10-23T12:59:50.385Z,7.25
2022-10-23T13:02:20.198Z,7.30
2022-10-23T13:04:48.983Z,9.90
2022-10-23T13:07:20.408Z,8.35
2022-10-23T13:09:48.115Z,8.63
2022-10-23T13:12:36.860Z,8.48
2022-10-23T13:15:06.612Z,6.72
2022-10-23T13:17:38.343Z,7.73
2022-10-23T13:20:16.793Z,8.82
2022-10-23T13:23:09.858Z,6.95
2022-10-23T13:25:38.882Z,10.30
2022-10-23T13:28:21.417Z,9.43
2022-10-23T13:31:06.860Z,8.03
2022-10-23T13:33:37.359Z,9.45
2022-10-23T13:36:22.552Z,9.23
2022-10-23T13:39:14.325Z,9.02
2022-10-23T13:41:43.548Z,7.60
2022-10-23T13:44:16.596Z,9.33
2022-10-23T13:46:43.644Z,8.35
2022-10-23T13:49:10.693Z,13.18
2022-10-23T13:51:43.284Z,11.70
2022-10-23T13:54:15.579Z,9.73
2022-10-23T13:56:42.526Z,10.43
2022-10-23T13:59:10.799Z,9.30
2022-10-23T14:01:38.072Z,7.22
2022-10-23T14:04:06.350Z,11.77
2022-10-23T14:06:33.824Z,7.80
2022-10-23T14:09:00.686Z,8.10
2022-10-23T14:11:27.622Z,6.90
2022-10-23T14:13:54.412Z,10.60
2022-10-23T14:16:21.621Z,5.18
2022-10-23T14:18:48.555Z,9.32
2022-10-23T14:21:18.044Z,6.03
2022-10-23T14:23:44.823Z,6.80
2022-10-23T14:26:15.281Z,6.22
2022-10-23T14:28:42.546Z,8.30
2022-10-23T14:31:14.483Z,8.50
2022-10-23T14:33:42.129Z,9.37
2022-10-23T14:36:09.226Z,6.93
2022-10-23T14:38:36.328Z,7.40
2022-10-23T14:41:03.756Z,8.13
2022-10-23T14:43:30.465Z,8.98
2022-10-23T14:45:57.373Z,11.93
2022-10-23T14:48:24.100Z,10.63
2022-10-23T14:50:50.905Z,6.82
2022-10-23T14:53:17.705Z,6.35
2022-10-23T14:55:44.541Z,8.40
2022-10-23T14:58:11.270Z,7.67
2022-10-23T15:00:39.285Z,6.55
2022-10-23T15:03:06.126Z,6.60
2022-10-23T15:05:32.949Z,8.25
2022-10-23T15:08:01.570Z,5.43
2022-10-23T15:10:28.528Z,6.67
2022-10-23T15:12:55.211Z,6.28
2022-10-23T15:15:22.674Z,6.97
2022-10-23T15:17:49.584Z,5.50
2022-10-23T15:20:16.402Z,6.63
2022-10-23T15:22:43.513Z,8.23
2022-10-23T15:25:13.134Z,8.10
2022-10-23T15:27:42.624Z,6.30
2022-10-23T15:30:11.080Z,9.15
2022-10-23T15:32:37.849Z,7.10
2022-10-23T15:35:04.830Z,7.37
2022-10-23T15:37:31.538Z,10.07
2022-10-23T15:40:01.271Z,4.75
2022-10-23T15:42:29.209Z,9.10
2022-10-23T15:44:55.975Z,6.25
2022-10-23T15:47:22.793Z,7.30
2022-10-23T15:49:49.572Z,7.40
2022-10-23T15:52:16.310Z,7.45
2022-10-23T15:54:43.067Z,9.25
2022-10-23T15:57:10.677Z,5.68
2022-10-23T15:59:37.375Z,6.40
2022-10-23T16:02:04.392Z,8.63
2022-10-23T16:04:31.658Z,9.55
2022-10-23T16:06:58.339Z,6.82
2022-10-23T16:09:25.053Z,7.13
2022-10-23T16:11:51.794Z,7.53
2022-10-23T16:14:18.638Z,8.27
2022-10-23T16:16:45.438Z,8.52
2022-10-23T16:19:12.573Z,8.23
2022-10-23T16:21:39.313Z,7.25
2022-10-23T16:24:08.002Z,7.97
2022-10-23T16:26:36.644Z,10.20
2022-10-23T16:29:05.769Z,7.55
2022-10-23T16:31:32.962Z,10.88
2022-10-23T16:34:01.498Z,8.85
2022-10-23T16:36:29.393Z,5.80
2022-10-23T16:39:10.162Z,6.43
2022-10-23T16:41:55.557Z,7.80
2022-10-23T16:44:26.499Z,10.10
2022-10-23T16:46:58.167Z,7.90
2022-10-23T16:49:25.007Z,7.03
2022-10-23T16:51:52.035Z,6.82
2022-10-23T16:54:19.408Z,7.88
2022-10-23T16:56:47.281Z,13.05
2022-10-23T16:59:14.344Z,7.63
2022-10-23T17:01:41.129Z,6.93
2022-10-23T17:04:10.836Z,9.00
2022-10-23T17:06:37.707Z,8.80
2022-10-23T17:09:05.839Z,7.80
2022-10-23T17:11:35.257Z,5.75
2022-10-23T17:14:05.317Z,9.83
2022-10-23T17:16:38.632Z,8.05
2022-10-23T17:19:16.145Z,9.70
2022-10-23T17:21:54.948Z,6.88
2022-10-23T17:24:22.817Z,7.82
2022-10-23T17:26:49.972Z,8.37
2022-10-23T17:29:16.966Z,7.68
2022-10-23T17:31:46.533Z,8.48
2022-10-23T17:34:15.982Z,6.97
2022-10-23T17:36:46.003Z,9.38
2022-10-23T17:39:15.218Z,6.53
2022-10-23T17:41:43.325Z,9.00
2022-10-23T17:44:10.924Z,10.55
2022-10-23T17:46:38.113Z,10.90
2022-10-23T17:49:05.392Z,7.63
2022-10-23T17:51:35.553Z,7.97
2022-10-23T17:54:08.592Z,9.55
2022-10-23T17:56:38.296Z,9.35
2022-10-23T17:59:12.129Z,6.55
2022-10-23T18:01:40.349Z,8.93
2022-10-23T18:04:08.281Z,10.37
2022-10-23T18:06:40.321Z,10.05
2022-10-23T18:09:07.642Z,9.75
2022-10-23T18:11:37.936Z,7.97
2022-10-23T18:14:06.718Z,7.78
2022-10-23T18:16:34.873Z,6.17
2022-10-23T18:19:02.231Z,8.82
2022-10-23T18:21:29.097Z,8.68
2022-10-23T18:23:55.982Z,11.00
2022-10-23T18:26:26.256Z,7.15
2022-10-23T18:28:59.094Z,9.03
2022-10-23T18:31:27.651Z,9.23
2022-10-23T18:34:04.141Z,8.88
2022-10-23T18:36:32.995Z,8.98
2022-10-23T18:39:00.087Z,6.97
2022-10-23T18:41:27.259Z,9.20
2022-10-23T18:43:54.801Z,7.40
2022-10-23T18:46:21.979Z,8.48
2022-10-23T18:48:50.799Z,6.95
2022-10-23T18:51:29.611Z,7.90
2022-10-23T18:53:56.763Z,6.47
2022-10-23T18:56:26.590Z,10.85
2022-10-23T18:58:58.749Z,9.02
2022-10-23T19:01:27.526Z,7.80
2022-10-23T19:06:28.953Z,7.50
2022-10-23T19:08:56.065Z,11.38
2022-10-23T19:11:25.137Z,9.65
2022-10-23T19:13:52.023Z,5.72
2022-10-23T19:16:27.420Z,6.82
2022-10-23T19:19:02.101Z,5.97
2022-10-23T19:21:33.775Z,4.63
2022-10-23T19:24:03.159Z,8.27
2022-10-23T19:26:30.889Z,5.55
2022-10-23T19:28:58.164Z,9.32
2022-10-23T19:31:26.411Z,5.93
2022-10-23T19:33:53.547Z,6.45
2022-10-23T19:36:23.567Z,5.32
2022-10-23T19:38:50.712Z,7.00
2022-10-23T19:41:18.749Z,5.40
2022-10-23T19:43:46.403Z,8.80
2022-10-23T19:46:13.442Z,6.68
2022-10-23T19:48:44.855Z,7.60
2022-10-23T19:51:13.508Z,6.28
2022-10-23T19:53:41.847Z,4.80
2022-10-23T19:56:10.583Z,8.73
2022-10-23T19:58:37.911Z,5.97
2022-10-23T20:01:09.552Z,7.07
2022-10-23T20:03:36.437Z,7.80
2022-10-23T20:06:03.659Z,5.03
2022-10-23T20:08:32.768Z,7.30
2022-10-23T20:11:01.880Z,5.20
2022-10-23T20:13:28.741Z,5.47
2022-10-23T20:15:55.794Z,5.80
2022-10-23T20:18:22.542Z,8.73
2022-10-23T20:20:49.342Z,6.57
2022-10-23T20:23:16.121Z,5.70
2022-10-23T20:25:43.125Z,6.68
2022-10-23T20:28:12.838Z,3.88
2022-10-23T20:30:44.050Z,6.40
2022-10-23T20:33:10.829Z,4.47
2022-10-23T20:35:42.323Z,8.18
2022-10-23T20:38:09.391Z,8.07
2022-10-23T20:40:36.301Z,6.50
2022-10-23T20:43:03.533Z,5.95
2022-10-23T20:45:30.319Z,5.43
2022-10-23T20:47:57.233Z,10.07
2022-10-23T20:50:24.036Z,4.63
2022-10-23T20:52:51.342Z,5.45
2022-10-23T20:55:18.672Z,3.90
2022-10-23T20:57:45.909Z,4.63
2022-10-23T21:00:13.165Z,4.60
2022-10-23T21:02:39.990Z,5.13
2022-10-23T21:05:07.366Z,4.72
2022-10-23T21:07:34.166Z,5.88
2022-10-23T21:10:02.097Z,4.23
2022-10-23T21:12:28.984Z,2.65
2022-10-23T21:14:55.689Z,3.78
2022-10-23T21:17:22.571Z,2.80
2022-10-23T21:19:49.400Z,3.70
2022-10-23T21:22:16.277Z,3.93
2022-10-23T21:24:43.100Z,4.72
2022-10-23T21:27:09.881Z,2.78
2022-10-23T21:29:36.788Z,4.72
2022-10-23T21:32:03.604Z,2.88
2022-10-23T21:34:30.415Z,4.63
2022-10-23T21:37:14.124Z,4.00
2022-10-23T21:39:42.712Z,3.53
2022-10-23T21:42:09.925Z,5.55
2022-10-23T21:44:36.904Z,4.47
2022-10-23T21:47:03.828Z,5.27
2022-10-23T21:49:30.564Z,3.13
2022-10-23T21:51:57.320Z,4.90
2022-10-23T21:54:24.115Z,4.15
2022-10-23T21:56:53.414Z,7.10
2022-10-23T21:59:24.080Z,4.17
2022-10-23T22:01:51.639Z,3.50
2022-10-23T22:04:19.879Z,5.47
2022-10-23T22:06:49.646Z,4.55
2022-10-23T22:09:19.417Z,3.97
2022-10-23T22:11:48.021Z,4.47
2022-10-23T22:14:14.846Z,4.28
2022-10-23T22:16:42.100Z,3.58
2022-10-23T22:19:11.808Z,8.05
2022-10-23T22:21:38.977Z,5.43
2022-10-23T22:24:06.609Z,3.03
2022-10-23T22:26:39.746Z,6.93
2022-10-23T22:29:12.855Z,4.63
2022-10-23T22:31:44.104Z,5.07
2022-10-23T22:34:26.803Z,6.07
2022-10-23T22:37:03.731Z,5.07
2022-10-23T22:39:30.582Z,4.57
2022-10-23T22:41:57.378Z,4.53
2022-10-23T22:44:24.101Z,4.95
2022-10-23T22:46:50.890Z,7.15
2022-10-23T22:49:17.682Z,6.77
2022-10-23T22:51:44.483Z,6.05
2022-10-23T22:54:11.364Z,5.90
2022-10-23T22:56:38.158Z,8.60
2022-10-23T22:59:05.688Z,4.80
2022-10-23T23:01:36.033Z,7.17
2022-10-23T23:04:19.492Z,6.93
2022-10-23T23:06:50.122Z,5.40
2022-10-23T23:09:18.125Z,6.38
2022-10-23T23:11:51.590Z,8.48
2022-10-23T23:14:22.901Z,6.90
2022-10-23T23:16:54.536Z,5.05
2022-10-23T23:19:23.179Z,7.80
2022-10-23T23:21:50.420Z,6.35
2022-10-23T23:24:17.360Z,6.10
2022-10-23T23:26:44.045Z,7.10
2022-10-23T23:29:11.029Z,5.88
2022-10-23T23:31:37.778Z,6.78
2022-10-23T23:34:04.668Z,5.45
2022-10-23T23:36:32.432Z,8.25
2022-10-23T23:38:59.527Z,5.37
2022-10-23T23:41:27.615Z,5.32
2022-10-23T23:43:55.987Z,7.05
2022-10-23T23:46:22.975Z,11.30
2022-10-23T23:48:50.055Z,7.95
2022-10-23T23:51:19.265Z,5.70
2022-10-23T23:53:46.567Z,8.93
2022-10-23T23:56:13.806Z,10.25
2022-10-23T23:58:40.993Z,9.57
